createdAt,value
2019-02-17T00:00:13.446Z,28.90
2019-02-17T00:02:43.033Z,27.44
2019-02-17T00:05:11.660Z,27.10
2019-02-17T00:07:40.679Z,27.87
2019-02-17T00:10:09.395Z,28.17
2019-02-17T00:12:38.053Z,27.07
2019-02-17T00:15:08.752Z,27.73
2019-02-17T00:17:37.618Z,26.90
2019-02-17T00:20:08.131Z,28.12
2019-02-17T00:22:36.786Z,26.12
2019-02-17T00:25:06.867Z,26.82
2019-02-17T00:27:35.488Z,25.53
2019-02-17T00:30:06.189Z,27.20
2019-02-17T00:32:34.872Z,25.15
2019-02-17T00:35:03.494Z,26.07
2019-02-17T00:37:32.179Z,25.68
2019-02-17T00:40:00.793Z,24.50
2019-02-17T00:42:29.409Z,23.80
2019-02-17T00:44:57.992Z,24.70
2019-02-17T00:47:26.575Z,23.47
2019-02-17T00:49:55.153Z,23.77
2019-02-17T00:52:24.024Z,24.15
2019-02-17T00:54:52.658Z,24.75
2019-02-17T00:57:21.284Z,25.90
2019-02-17T00:59:50.110Z,23.70
2019-02-17T01:02:18.896Z,24.20
2019-02-17T01:04:47.469Z,24.88
2019-02-17T01:07:16.256Z,23.13
2019-02-17T01:09:44.919Z,22.30
2019-02-17T01:12:13.529Z,23.75
2019-02-17T01:14:42.934Z,22.77
2019-02-17T01:17:11.743Z,23.00
2019-02-17T01:19:40.382Z,22.27
2019-02-17T01:22:09.035Z,23.18
2019-02-17T01:24:37.823Z,21.73
2019-02-17T01:27:06.434Z,21.40
2019-02-17T01:29:35.271Z,20.95
2019-02-17T01:32:03.931Z,22.13
2019-02-17T01:34:32.522Z,19.87
2019-02-17T01:37:01.365Z,20.65
2019-02-17T01:39:29.972Z,19.97
2019-02-17T01:41:58.636Z,21.00
2019-02-17T01:44:27.168Z,21.62
2019-02-17T01:46:55.856Z,20.32
2019-02-17T01:49:24.681Z,20.20
2019-02-17T01:51:53.291Z,19.90
2019-02-17T01:54:21.928Z,20.53
2019-02-17T01:56:50.562Z,20.63
2019-02-17T01:59:19.217Z,19.95
2019-02-17T02:01:47.868Z,20.25
2019-02-17T02:04:16.691Z,20.57
2019-02-17T02:06:45.483Z,20.23
2019-02-17T02:09:14.169Z,20.90
2019-02-17T02:11:42.891Z,20.62
2019-02-17T02:14:11.497Z,21.12
2019-02-17T02:16:40.169Z,19.35
2019-02-17T02:19:08.777Z,20.15
2019-02-17T02:21:37.386Z,19.50
2019-02-17T02:24:05.956Z,20.35
2019-02-17T02:26:34.538Z,20.37
2019-02-17T02:29:03.193Z,20.50
2019-02-17T02:31:31.857Z,21.37
2019-02-17T02:34:00.680Z,20.25
2019-02-17T02:36:29.405Z,19.98
2019-02-17T02:38:58.326Z,20.57
2019-02-17T02:41:34.143Z,19.77
2019-02-17T02:43:57.322Z,18.15
2019-02-17T02:46:25.984Z,19.00
2019-02-17T02:48:54.595Z,19.47
2019-02-17T02:51:23.213Z,19.85
2019-02-17T02:53:52.424Z,20.23
2019-02-17T02:56:21.242Z,19.23
2019-02-17T02:58:49.772Z,20.25
2019-02-17T03:01:18.313Z,19.77
2019-02-17T03:03:47.042Z,19.80
2019-02-17T03:06:33.391Z,19.62
2019-02-17T03:09:02.241Z,20.03
2019-02-17T03:11:31.056Z,20.88
2019-02-17T03:13:59.687Z,18.75
2019-02-17T03:16:28.322Z,18.65
2019-02-17T03:18:56.855Z,19.13
2019-02-17T03:21:25.544Z,19.62
2019-02-17T03:23:54.292Z,20.37
2019-02-17T03:26:22.938Z,20.27
2019-02-17T03:28:51.412Z,19.73
2019-02-17T03:31:20.150Z,18.98
2019-02-17T03:33:48.691Z,18.42
2019-02-17T03:36:17.346Z,19.12
2019-02-17T03:38:45.995Z,18.25
2019-02-17T03:41:14.695Z,17.87
2019-02-17T03:43:43.305Z,20.90
2019-02-17T03:46:11.951Z,18.43
2019-02-17T03:48:40.816Z,19.27
2019-02-17T03:51:09.504Z,18.53
2019-02-17T03:53:38.244Z,18.75
2019-02-17T03:56:06.902Z,18.98
2019-02-17T03:58:35.536Z,18.98
2019-02-17T04:01:04.139Z,19.47
2019-02-17T04:03:32.853Z,18.75
2019-02-17T04:06:01.469Z,19.45
2019-02-17T04:08:30.097Z,18.35
2019-02-17T04:10:58.781Z,19.00
2019-02-17T04:13:27.504Z,18.77
2019-02-17T04:15:56.117Z,18.87
2019-02-17T04:18:24.815Z,18.35
2019-02-17T04:20:53.451Z,18.67
2019-02-17T04:23:30.973Z,19.42
2019-02-17T04:25:54.060Z,18.57
2019-02-17T04:28:22.699Z,18.10
2019-02-17T04:30:51.313Z,18.03
2019-02-17T04:33:19.952Z,18.17
2019-02-17T04:35:48.572Z,19.13
2019-02-17T04:38:17.182Z,18.50
2019-02-17T04:40:46.110Z,18.70
2019-02-17T04:43:14.763Z,18.10
2019-02-17T04:45:43.480Z,18.00
2019-02-17T04:48:12.118Z,17.75
2019-02-17T04:50:40.778Z,17.75
2019-02-17T04:53:09.639Z,18.37
2019-02-17T04:55:38.222Z,18.73
2019-02-17T04:58:06.842Z,18.10
2019-02-17T05:00:40.379Z,18.80
2019-02-17T05:03:05.818Z,18.37
2019-02-17T05:05:34.463Z,18.80
2019-02-17T05:08:03.678Z,18.47
2019-02-17T05:10:32.336Z,19.07
2019-02-17T05:13:00.932Z,19.80
2019-02-17T05:15:29.630Z,20.15
2019-02-17T05:17:58.244Z,20.88
2019-02-17T05:20:27.052Z,19.95
2019-02-17T05:22:55.661Z,20.43
2019-02-17T05:25:24.270Z,20.23
2019-02-17T05:27:52.871Z,19.80
2019-02-17T05:30:21.503Z,18.90
2019-02-17T05:32:50.045Z,20.70
2019-02-17T05:35:18.783Z,18.50
2019-02-17T05:37:47.397Z,18.30
2019-02-17T05:40:16.145Z,19.10
2019-02-17T05:42:44.817Z,19.27
2019-02-17T05:45:13.431Z,19.62
2019-02-17T05:47:42.041Z,19.25
2019-02-17T05:50:10.847Z,18.85
2019-02-17T05:52:39.500Z,19.55
2019-02-17T05:55:08.318Z,18.92
2019-02-17T05:57:36.903Z,18.10
2019-02-17T06:00:08.386Z,19.40
2019-02-17T06:02:37.042Z,18.50
2019-02-17T06:05:06.986Z,19.60
2019-02-17T06:07:35.600Z,18.82
2019-02-17T06:10:06.106Z,18.98
2019-02-17T06:12:34.858Z,19.50
2019-02-17T06:15:03.541Z,19.15
2019-02-17T06:17:32.072Z,19.30
2019-02-17T06:20:00.984Z,19.12
2019-02-17T06:22:29.672Z,18.62
2019-02-17T06:24:58.317Z,20.05
2019-02-17T06:27:26.930Z,19.12
2019-02-17T06:29:55.588Z,19.92
2019-02-17T06:32:24.200Z,20.33
2019-02-17T06:34:52.795Z,18.30
2019-02-17T06:37:21.408Z,19.37
2019-02-17T06:39:50.123Z,19.45
2019-02-17T06:42:18.781Z,20.85
2019-02-17T06:44:47.390Z,20.00
2019-02-17T06:47:17.944Z,19.43
2019-02-17T06:49:46.580Z,19.67
2019-02-17T06:52:15.190Z,19.37
2019-02-17T06:54:45.788Z,19.50
2019-02-17T06:57:19.119Z,18.48
2019-02-17T06:59:47.696Z,19.37
2019-02-17T07:02:16.313Z,19.67
2019-02-17T07:05:04.657Z,20.40
2019-02-17T07:07:33.347Z,21.85
2019-02-17T07:10:02.244Z,21.60
2019-02-17T07:12:31.016Z,21.73
2019-02-17T07:14:59.722Z,20.80
2019-02-17T07:17:28.361Z,21.02
2019-02-17T07:19:57.099Z,20.32
2019-02-17T07:22:25.836Z,20.92
2019-02-17T07:24:54.677Z,21.10
2019-02-17T07:27:23.340Z,25.60
2019-02-17T07:29:51.963Z,22.75
2019-02-17T07:32:20.547Z,20.68
2019-02-17T07:34:49.230Z,20.80
2019-02-17T07:37:19.438Z,21.75
2019-02-17T07:39:48.079Z,20.25
2019-02-17T07:42:16.688Z,20.57
2019-02-17T07:44:45.320Z,20.90
2019-02-17T07:47:14.032Z,19.15
2019-02-17T07:49:42.680Z,19.70
2019-02-17T07:52:11.284Z,19.45
2019-02-17T07:54:40.016Z,18.60
2019-02-17T07:57:08.673Z,19.87
2019-02-17T07:59:37.288Z,23.30
2019-02-17T08:02:06.002Z,49.73
2019-02-17T08:04:34.540Z,39.08
2019-02-17T08:07:03.248Z,30.50
2019-02-17T08:09:31.895Z,30.77
2019-02-17T08:12:00.545Z,24.33
2019-02-17T08:14:29.163Z,22.48
2019-02-17T08:16:57.810Z,21.52
2019-02-17T08:19:26.565Z,19.90
2019-02-17T08:21:55.520Z,17.73
2019-02-17T08:24:24.176Z,19.02
2019-02-17T08:26:53.020Z,18.37
2019-02-17T08:29:22.126Z,19.10
2019-02-17T08:31:55.901Z,19.23
2019-02-17T08:34:21.069Z,18.20
2019-02-17T08:36:49.622Z,18.77
2019-02-17T08:39:18.300Z,18.20
2019-02-17T08:41:47.036Z,20.27
2019-02-17T08:44:15.676Z,19.25
2019-02-17T08:46:45.214Z,18.92
2019-02-17T08:49:14.230Z,19.75
2019-02-17T08:51:42.892Z,19.65
2019-02-17T08:54:11.824Z,20.27
2019-02-17T08:56:40.473Z,18.85
2019-02-17T08:59:09.243Z,21.33
2019-02-17T09:01:37.869Z,19.52
2019-02-17T09:04:06.664Z,21.73
2019-02-17T09:06:36.005Z,20.70
2019-02-17T09:09:05.705Z,21.23
2019-02-17T09:11:34.735Z,19.60
2019-02-17T09:14:03.545Z,19.05
2019-02-17T09:16:32.204Z,19.92
2019-02-17T09:19:00.820Z,20.57
2019-02-17T09:21:29.587Z,20.43
2019-02-17T09:23:58.599Z,20.53
2019-02-17T09:26:29.631Z,19.92
2019-02-17T09:28:57.859Z,20.97
2019-02-17T09:31:26.540Z,19.57
2019-02-17T09:33:55.580Z,19.67
2019-02-17T09:36:24.424Z,20.15
2019-02-17T09:38:53.152Z,21.47
2019-02-17T09:41:21.749Z,20.43
2019-02-17T09:43:50.593Z,21.17
2019-02-17T09:46:19.207Z,21.12
2019-02-17T09:48:47.840Z,20.97
2019-02-17T09:51:16.476Z,20.95
2019-02-17T09:53:45.125Z,21.10
2019-02-17T09:56:13.849Z,19.85
2019-02-17T09:58:42.487Z,20.75
2019-02-17T10:01:11.292Z,19.77
2019-02-17T10:03:40.176Z,20.80
2019-02-17T10:06:08.964Z,20.72
2019-02-17T10:08:37.677Z,20.62
2019-02-17T10:11:06.373Z,19.40
2019-02-17T10:13:34.991Z,21.68
2019-02-17T10:16:03.672Z,22.05
2019-02-17T10:18:32.320Z,21.85
2019-02-17T10:21:00.943Z,21.50
2019-02-17T10:23:29.591Z,20.20
2019-02-17T10:25:58.210Z,20.32
2019-02-17T10:28:26.866Z,19.77
2019-02-17T10:30:55.755Z,20.25
2019-02-17T10:33:24.616Z,19.42
2019-02-17T10:35:53.324Z,20.50
2019-02-17T10:38:22.421Z,20.65
2019-02-17T10:40:50.982Z,20.37
2019-02-17T10:43:19.618Z,21.25
2019-02-17T10:45:48.375Z,20.50
2019-02-17T10:48:17.127Z,20.25
2019-02-17T10:50:46.004Z,19.37
2019-02-17T10:53:14.649Z,21.50
2019-02-17T10:55:43.394Z,20.43
2019-02-17T10:58:12.367Z,22.82
2019-02-17T11:00:41.672Z,20.80
2019-02-17T11:03:10.403Z,20.23
2019-02-17T11:05:39.214Z,21.85
2019-02-17T11:08:08.119Z,20.90
2019-02-17T11:10:36.866Z,23.65
2019-02-17T11:13:05.523Z,21.85
2019-02-17T11:15:34.205Z,21.23
2019-02-17T11:18:02.891Z,20.00
2019-02-17T11:20:31.600Z,20.92
2019-02-17T11:23:00.511Z,18.52
2019-02-17T11:25:29.135Z,19.32
2019-02-17T11:27:57.777Z,17.80
2019-02-17T11:30:26.391Z,18.57
2019-02-17T11:32:58.064Z,18.73
2019-02-17T11:35:25.364Z,17.52
2019-02-17T11:37:54.182Z,15.87
2019-02-17T11:40:23.084Z,14.63
2019-02-17T11:42:51.701Z,15.32
2019-02-17T11:45:20.660Z,14.87
2019-02-17T11:47:49.380Z,14.07
2019-02-17T11:50:18.028Z,15.63
2019-02-17T11:52:46.642Z,15.95
2019-02-17T11:55:16.768Z,15.95
2019-02-17T11:57:45.377Z,15.25
2019-02-17T12:00:19.471Z,15.55
2019-02-17T12:02:48.192Z,15.85
2019-02-17T12:05:16.793Z,14.47
2019-02-17T12:07:45.924Z,16.05
2019-02-17T12:10:14.718Z,15.50
2019-02-17T12:12:43.384Z,15.58
2019-02-17T12:15:13.789Z,14.83
2019-02-17T12:17:42.410Z,14.80
2019-02-17T12:20:32.533Z,15.45
2019-02-17T12:23:03.002Z,15.15
2019-02-17T12:25:33.254Z,16.37
2019-02-17T12:28:03.572Z,13.95
2019-02-17T12:30:32.271Z,16.75
2019-02-17T12:33:00.960Z,15.60
2019-02-17T12:35:29.609Z,15.87
2019-02-17T12:37:58.177Z,16.50
2019-02-17T12:40:26.839Z,17.27
2019-02-17T12:42:55.538Z,16.85
2019-02-17T12:45:24.180Z,15.68
2019-02-17T12:47:58.191Z,16.97
2019-02-17T12:50:23.338Z,15.80
2019-02-17T12:52:52.330Z,16.55
2019-02-17T12:55:20.982Z,15.05
2019-02-17T12:57:49.608Z,15.70
2019-02-17T13:00:18.651Z,15.95
2019-02-17T13:02:47.532Z,16.30
2019-02-17T13:05:16.165Z,17.27
2019-02-17T13:07:45.112Z,14.10
2019-02-17T13:10:13.757Z,14.40
2019-02-17T13:12:42.459Z,14.13
2019-02-17T13:15:13.001Z,13.18
2019-02-17T13:17:41.747Z,13.78
2019-02-17T13:20:12.284Z,13.55
2019-02-17T13:22:40.978Z,18.92
2019-02-17T13:25:12.242Z,19.57
2019-02-17T13:27:40.935Z,15.50
2019-02-17T13:30:15.497Z,14.98
2019-02-17T13:32:44.248Z,14.87
2019-02-17T13:35:13.067Z,13.90
2019-02-17T13:37:41.712Z,17.12
2019-02-17T13:40:12.659Z,14.50
2019-02-17T13:42:41.337Z,15.43
2019-02-17T13:45:12.728Z,14.05
2019-02-17T13:47:41.410Z,13.95
2019-02-17T13:50:12.313Z,13.90
2019-02-17T13:52:42.495Z,13.55
2019-02-17T13:55:11.633Z,14.85
2019-02-17T13:57:41.948Z,16.87
2019-02-17T14:00:16.280Z,13.93
2019-02-17T14:02:45.032Z,13.53
2019-02-17T14:05:13.954Z,13.88
2019-02-17T14:07:42.645Z,13.28
2019-02-17T14:10:12.794Z,13.25
2019-02-17T14:12:41.708Z,24.85
2019-02-17T14:15:16.261Z,35.70
2019-02-17T14:17:44.879Z,23.22
2019-02-17T14:20:13.607Z,15.32
2019-02-17T14:22:42.428Z,11.88
2019-02-17T14:25:11.632Z,11.85
2019-02-17T14:27:40.351Z,15.40
2019-02-17T14:30:17.268Z,13.62
2019-02-17T14:32:46.066Z,13.50
2019-02-17T14:35:14.845Z,12.23
2019-02-17T14:37:43.556Z,12.18
2019-02-17T14:40:13.413Z,12.78
2019-02-17T14:42:42.053Z,11.85
2019-02-17T14:45:14.811Z,12.75
2019-02-17T14:47:43.424Z,13.10
2019-02-17T14:50:12.382Z,12.43
2019-02-17T14:52:41.032Z,12.00
2019-02-17T14:55:13.179Z,12.50
2019-02-17T14:57:42.163Z,12.23
2019-02-17T15:00:15.835Z,12.07
2019-02-17T15:02:44.451Z,11.70
2019-02-17T15:05:12.730Z,12.07
2019-02-17T15:07:41.495Z,12.68
2019-02-17T15:10:16.716Z,12.70
2019-02-17T15:12:45.301Z,11.75
2019-02-17T15:15:16.101Z,11.85
2019-02-17T15:17:44.817Z,12.15
2019-02-17T15:20:21.664Z,10.93
2019-02-17T15:22:50.329Z,11.85
2019-02-17T15:25:19.058Z,12.17
2019-02-17T15:27:48.016Z,11.22
2019-02-17T15:30:18.090Z,11.70
2019-02-17T15:32:46.864Z,12.63
2019-02-17T15:35:15.648Z,11.63
2019-02-17T15:37:44.275Z,11.70
2019-02-17T15:40:14.355Z,11.80
2019-02-17T15:42:43.477Z,11.70
2019-02-17T15:45:13.675Z,10.60
2019-02-17T15:47:42.332Z,11.23
2019-02-17T15:50:12.857Z,10.58
2019-02-17T15:52:41.554Z,10.53
2019-02-17T15:55:14.769Z,11.45
2019-02-17T15:57:43.625Z,10.93
2019-02-17T16:00:14.369Z,10.43
2019-02-17T16:02:43.112Z,10.13
2019-02-17T16:05:12.064Z,10.13
2019-02-17T16:07:40.746Z,29.42
2019-02-17T16:10:11.262Z,11.83
2019-02-17T16:12:40.026Z,23.10
2019-02-17T16:15:11.591Z,27.10
2019-02-17T16:17:40.212Z,16.83
2019-02-17T16:20:11.729Z,14.20
2019-02-17T16:22:40.376Z,16.05
2019-02-17T16:25:10.184Z,13.48
2019-02-17T16:27:38.818Z,13.95
2019-02-17T16:30:19.512Z,13.45
2019-02-17T16:32:48.129Z,11.88
2019-02-17T16:35:17.215Z,12.03
2019-02-17T16:37:45.942Z,11.80
2019-02-17T16:40:15.920Z,13.83
2019-02-17T16:42:44.719Z,15.95
2019-02-17T16:45:14.282Z,14.40
2019-02-17T16:47:44.642Z,13.72
2019-02-17T16:50:25.405Z,12.88
2019-02-17T16:52:54.267Z,14.55
2019-02-17T16:55:22.882Z,13.95
2019-02-17T16:57:51.536Z,13.62
2019-02-17T17:00:25.090Z,12.93
2019-02-17T17:02:54.542Z,12.43
2019-02-17T17:05:24.058Z,12.30
2019-02-17T17:07:52.979Z,12.88
2019-02-17T17:10:22.021Z,12.90
2019-02-17T17:12:50.722Z,12.75
2019-02-17T17:15:19.477Z,12.98
2019-02-17T17:17:48.197Z,13.88
2019-02-17T17:20:21.832Z,15.25
2019-02-17T17:22:50.515Z,15.10
2019-02-17T17:25:19.666Z,14.70
2019-02-17T17:27:48.404Z,14.80
2019-02-17T17:30:20.549Z,14.15
2019-02-17T17:32:49.496Z,13.53
2019-02-17T17:35:18.350Z,12.28
2019-02-17T17:37:46.992Z,12.00
2019-02-17T17:40:17.807Z,11.97
2019-02-17T17:42:46.448Z,11.68
2019-02-17T17:45:22.240Z,11.83
2019-02-17T17:47:50.927Z,11.55
2019-02-17T17:50:19.542Z,11.90
2019-02-17T17:52:48.274Z,10.90
2019-02-17T17:55:16.935Z,11.60
2019-02-17T17:57:45.637Z,10.80
2019-02-17T18:00:23.907Z,11.83
2019-02-17T18:02:52.522Z,13.15
2019-02-17T18:05:21.313Z,14.40
2019-02-17T18:07:50.132Z,15.68
2019-02-17T18:10:18.895Z,18.00
2019-02-17T18:12:47.653Z,13.15
2019-02-17T18:15:18.169Z,12.33
2019-02-17T18:17:54.015Z,11.70
2019-02-17T18:20:17.257Z,11.48
2019-02-17T18:22:45.867Z,9.58
2019-02-17T18:25:15.166Z,9.58
2019-02-17T18:27:43.881Z,9.65
2019-02-17T18:30:18.202Z,9.55
2019-02-17T18:32:47.129Z,9.88
2019-02-17T18:35:20.380Z,9.23
2019-02-17T18:37:46.442Z,9.50
2019-02-17T18:40:16.732Z,9.40
2019-02-17T18:42:45.377Z,9.58
2019-02-17T18:45:15.126Z,10.63
2019-02-17T18:47:43.852Z,10.70
2019-02-17T18:50:20.041Z,10.40
2019-02-17T18:52:49.822Z,9.96
2019-02-17T18:55:19.155Z,10.25
2019-02-17T18:57:50.839Z,9.95
2019-02-17T19:00:27.900Z,10.08
2019-02-17T19:02:56.507Z,9.77
2019-02-17T19:05:31.866Z,8.88
2019-02-17T19:07:55.515Z,9.33
2019-02-17T19:10:24.223Z,9.53
2019-02-17T19:12:52.827Z,9.90
2019-02-17T19:15:22.304Z,9.95
2019-02-17T19:17:50.949Z,9.93
2019-02-17T19:20:28.644Z,10.13
2019-02-17T19:22:57.488Z,9.50
2019-02-17T19:25:26.152Z,9.75
2019-02-17T19:27:54.833Z,10.20
2019-02-17T19:30:23.568Z,10.35
2019-02-17T19:32:53.883Z,9.50
2019-02-17T19:35:22.645Z,11.12
2019-02-17T19:37:51.662Z,11.07
2019-02-17T19:40:20.423Z,10.40
2019-02-17T19:42:49.041Z,11.33
2019-02-17T19:45:20.656Z,10.63
2019-02-17T19:47:49.376Z,10.08
2019-02-17T19:50:18.144Z,10.98
2019-02-17T19:52:47.048Z,10.75
2019-02-17T19:55:16.005Z,9.88
2019-02-17T19:57:44.677Z,10.82
2019-02-17T20:00:15.815Z,10.13
2019-02-17T20:02:52.067Z,9.95
2019-02-17T20:05:22.301Z,10.03
2019-02-17T20:07:52.797Z,10.90
2019-02-17T20:10:21.444Z,10.20
2019-02-17T20:12:50.279Z,11.03
2019-02-17T20:15:19.723Z,10.27
2019-02-17T20:17:48.350Z,10.48
2019-02-17T20:20:16.977Z,10.43
2019-02-17T20:22:45.619Z,10.95
2019-02-17T20:25:14.238Z,10.50
2019-02-17T20:27:42.852Z,11.22
2019-02-17T20:30:13.650Z,11.05
2019-02-17T20:32:42.260Z,10.65
2019-02-17T20:35:10.898Z,10.78
2019-02-17T20:37:39.545Z,11.25
2019-02-17T20:40:13.003Z,10.78
2019-02-17T20:42:41.665Z,10.33
2019-02-17T20:45:11.883Z,11.63
2019-02-17T20:47:40.595Z,10.63
2019-02-17T20:50:14.104Z,10.78
2019-02-17T20:52:42.875Z,11.35
2019-02-17T20:55:12.517Z,11.10
2019-02-17T20:57:41.130Z,12.58
2019-02-17T21:00:11.840Z,11.27
2019-02-17T21:02:42.099Z,12.03
2019-02-17T21:05:11.391Z,12.35
2019-02-17T21:07:40.253Z,11.88
2019-02-17T21:10:13.277Z,11.38
2019-02-17T21:12:42.201Z,10.75
2019-02-17T21:15:12.287Z,11.03
2019-02-17T21:17:43.945Z,10.53
2019-02-17T21:20:13.249Z,10.60
2019-02-17T21:22:41.903Z,10.28
2019-02-17T21:25:11.915Z,10.38
2019-02-17T21:27:40.698Z,9.93
2019-02-17T21:30:20.417Z,10.72
2019-02-17T21:32:49.437Z,9.72
2019-02-17T21:35:18.191Z,10.45
2019-02-17T21:37:46.853Z,10.55
2019-02-17T21:40:15.528Z,9.83
2019-02-17T21:42:44.177Z,10.23
2019-02-17T21:45:14.745Z,10.15
2019-02-17T21:47:43.390Z,9.48
2019-02-17T21:50:13.000Z,9.45
2019-02-17T21:52:44.335Z,9.83
2019-02-17T21:55:14.408Z,9.93
2019-02-17T21:57:43.222Z,9.50
2019-02-17T22:00:16.418Z,9.78
2019-02-17T22:02:45.073Z,9.60
2019-02-17T22:05:13.763Z,9.93
2019-02-17T22:07:45.365Z,9.60
2019-02-17T22:10:16.654Z,10.53
2019-02-17T22:12:45.309Z,9.98
2019-02-17T22:15:24.063Z,10.32
2019-02-17T22:17:52.684Z,10.75
2019-02-17T22:20:21.330Z,10.23
2019-02-17T22:22:50.149Z,9.88
2019-02-17T22:25:19.040Z,9.53
2019-02-17T22:27:47.805Z,9.80
2019-02-17T22:30:16.610Z,10.78
2019-02-17T22:32:45.247Z,9.93
2019-02-17T22:35:13.951Z,10.70
2019-02-17T22:37:42.679Z,10.40
2019-02-17T22:40:13.737Z,10.28
2019-02-17T22:42:42.470Z,10.53
2019-02-17T22:45:12.439Z,9.70
2019-02-17T22:47:41.042Z,10.72
2019-02-17T22:50:14.569Z,10.25
2019-02-17T22:52:44.333Z,10.10
2019-02-17T22:55:13.848Z,9.90
2019-02-17T22:57:42.571Z,9.23
2019-02-17T23:00:45.830Z,9.67
2019-02-17T23:03:14.688Z,9.10
2019-02-17T23:05:43.443Z,9.58
2019-02-17T23:08:12.340Z,9.25
2019-02-17T23:10:41.110Z,9.78
2019-02-17T23:13:09.839Z,9.55
2019-02-17T23:15:38.455Z,9.25
2019-02-17T23:18:07.084Z,9.53
2019-02-17T23:20:35.712Z,8.93
2019-02-17T23:23:04.345Z,9.90
2019-02-17T23:25:32.951Z,9.47
2019-02-17T23:28:01.629Z,9.15
2019-02-17T23:30:30.234Z,10.30
2019-02-17T23:32:58.850Z,9.30
2019-02-17T23:35:27.501Z,9.95
2019-02-17T23:37:56.155Z,9.70
2019-02-17T23:40:24.828Z,10.30
2019-02-17T23:42:53.428Z,9.23
2019-02-17T23:45:22.078Z,9.98
2019-02-17T23:47:50.724Z,10.15
2019-02-17T23:50:19.341Z,9.63
2019-02-17T23:52:48.271Z,9.75
2019-02-17T23:55:16.993Z,8.83
2019-02-17T23:57:45.600Z,8.68
